createdAt,value
2017-05-22T00:01:52.836Z,56.40
2017-05-22T00:04:21.368Z,55.80
2017-05-22T00:06:49.913Z,55.40
2017-05-22T00:09:18.422Z,54.80
2017-05-22T00:11:46.931Z,54.70
2017-05-22T00:14:15.466Z,54.90
2017-05-22T00:16:43.966Z,54.60
2017-05-22T00:19:12.466Z,54.60
2017-05-22T00:21:41.008Z,54.50
2017-05-22T00:24:09.509Z,54.60
2017-05-22T00:26:38.012Z,54.50
2017-05-22T00:29:06.565Z,55.30
2017-05-22T00:31:35.073Z,54.90
2017-05-22T00:34:03.573Z,55.40
2017-05-22T00:36:32.128Z,55.30
2017-05-22T00:39:00.626Z,55.50
2017-05-22T00:41:29.127Z,55.40
2017-05-22T00:43:57.665Z,55.40
2017-05-22T00:46:26.168Z,55.40
2017-05-22T00:48:54.677Z,55.50
2017-05-22T00:51:23.245Z,55.70
2017-05-22T00:53:51.744Z,55.60
2017-05-22T00:56:20.248Z,55.60
2017-05-22T00:58:48.787Z,56.00
2017-05-22T01:01:17.309Z,56.00
2017-05-22T01:03:45.812Z,56.00
2017-05-22T01:06:14.357Z,55.60
2017-05-22T01:08:42.861Z,56.10
2017-05-22T01:11:11.365Z,56.20
2017-05-22T01:13:39.909Z,56.40
2017-05-22T01:16:08.413Z,56.20
2017-05-22T01:18:36.916Z,55.90
2017-05-22T01:21:05.456Z,56.20
2017-05-22T01:23:33.961Z,56.60
2017-05-22T01:26:02.457Z,56.30
2017-05-22T01:28:30.996Z,57.00
2017-05-22T01:30:59.510Z,56.90
2017-05-22T01:33:28.024Z,57.20
2017-05-22T01:35:56.589Z,57.40
2017-05-22T01:38:25.120Z,57.40
2017-05-22T01:40:53.629Z,57.10
2017-05-22T01:43:22.188Z,57.20
2017-05-22T01:45:50.686Z,57.60
2017-05-22T01:48:19.210Z,58.20
2017-05-22T01:50:47.751Z,58.00
2017-05-22T01:53:16.251Z,57.70
2017-05-22T01:55:44.753Z,58.40
2017-05-22T01:58:13.296Z,57.80
2017-05-22T02:00:41.798Z,58.20
2017-05-22T02:03:10.293Z,58.70
2017-05-22T02:05:38.868Z,58.40
2017-05-22T02:08:07.372Z,58.30
2017-05-22T02:10:35.873Z,58.80
2017-05-22T02:13:04.409Z,59.00
2017-05-22T02:15:32.908Z,59.40
2017-05-22T02:18:01.409Z,59.30
2017-05-22T02:20:30.242Z,59.30
2017-05-22T02:22:58.745Z,59.80
2017-05-22T02:25:27.255Z,60.40
2017-05-22T02:27:55.800Z,60.20
2017-05-22T02:30:24.412Z,60.30
2017-05-22T02:32:52.922Z,60.90
2017-05-22T02:35:21.463Z,61.30
2017-05-22T02:37:49.968Z,61.60
2017-05-22T02:40:18.477Z,62.10
2017-05-22T02:42:47.017Z,62.10
2017-05-22T02:45:15.511Z,62.70
2017-05-22T02:47:44.014Z,63.10
2017-05-22T02:50:12.559Z,63.70
2017-05-22T02:52:41.072Z,64.50
2017-05-22T02:55:09.573Z,65.20
2017-05-22T02:57:38.115Z,65.90
2017-05-22T03:00:06.615Z,66.60
2017-05-22T03:02:35.117Z,66.80
2017-05-22T03:05:03.666Z,68.40
2017-05-22T03:07:32.188Z,68.10
2017-05-22T03:10:00.693Z,68.80
2017-05-22T03:12:29.236Z,69.40
2017-05-22T03:14:57.741Z,69.60
2017-05-22T03:17:26.244Z,68.80
2017-05-22T03:19:54.783Z,68.70
2017-05-22T03:22:23.279Z,68.40
2017-05-22T03:24:51.785Z,68.50
2017-05-22T03:27:20.323Z,68.10
2017-05-22T03:29:48.824Z,68.40
2017-05-22T03:32:17.320Z,69.30
2017-05-22T03:34:45.883Z,69.20
2017-05-22T03:37:14.393Z,69.00
2017-05-22T03:39:42.897Z,68.30
2017-05-22T03:42:11.435Z,69.30
2017-05-22T03:44:39.935Z,68.80
2017-05-22T03:47:08.440Z,69.70
2017-05-22T03:49:37.003Z,70.70
2017-05-22T03:52:05.506Z,70.70
2017-05-22T03:54:34.033Z,69.60
2017-05-22T03:57:02.580Z,69.20
2017-05-22T03:59:31.076Z,69.40
2017-05-22T04:01:59.587Z,68.70
2017-05-22T04:04:28.167Z,68.80
2017-05-22T04:06:56.659Z,67.40
2017-05-22T04:09:25.159Z,67.40
2017-05-22T04:11:53.730Z,67.20
2017-05-22T04:14:22.236Z,65.50
2017-05-22T04:16:50.748Z,65.30
2017-05-22T04:19:19.290Z,66.40
2017-05-22T04:21:47.787Z,66.40
2017-05-22T04:24:16.352Z,66.10
2017-05-22T04:26:44.893Z,65.40
2017-05-22T04:29:13.391Z,66.30
2017-05-22T04:31:41.887Z,66.70
2017-05-22T04:34:10.429Z,66.60
2017-05-22T04:36:38.933Z,66.40
2017-05-22T04:39:07.427Z,66.20
2017-05-22T04:41:35.970Z,67.20
2017-05-22T04:44:04.467Z,66.10
2017-05-22T04:46:32.969Z,65.10
2017-05-22T04:49:01.511Z,64.60
2017-05-22T04:51:30.050Z,63.90
2017-05-22T04:53:58.560Z,62.40
2017-05-22T04:56:26.342Z,62.30
2017-05-22T04:58:54.838Z,59.40
2017-05-22T05:01:23.340Z,58.30
2017-05-22T05:03:51.883Z,57.50
2017-05-22T05:06:20.389Z,56.90
2017-05-22T05:08:48.894Z,56.30
2017-05-22T05:11:18.132Z,54.00
2017-05-22T05:13:46.629Z,52.20
2017-05-22T05:16:16.029Z,52.00
2017-05-22T05:18:44.580Z,50.60
2017-05-22T05:21:13.081Z,49.90
2017-05-22T05:23:41.584Z,48.80
2017-05-22T05:26:10.154Z,47.10
2017-05-22T05:28:38.692Z,44.60
2017-05-22T05:31:07.203Z,43.00
2017-05-22T05:33:35.745Z,41.70
2017-05-22T05:36:04.256Z,41.90
2017-05-22T05:38:32.752Z,40.80
2017-05-22T05:41:01.291Z,37.60
2017-05-22T05:43:29.792Z,35.60
2017-05-22T05:45:58.319Z,36.90
2017-05-22T05:48:26.860Z,37.90
2017-05-22T05:50:55.364Z,39.20
2017-05-22T05:53:23.863Z,40.70
2017-05-22T05:55:52.398Z,41.40
2017-05-22T05:58:20.909Z,42.50
2017-05-22T06:00:49.413Z,44.00
2017-05-22T06:03:17.956Z,44.10
2017-05-22T06:05:46.456Z,44.40
2017-05-22T06:08:14.954Z,42.60
2017-05-22T06:10:42.763Z,42.70
2017-05-22T06:13:11.265Z,41.10
2017-05-22T06:15:39.767Z,39.90
2017-05-22T06:18:08.305Z,39.50
2017-05-22T06:20:36.810Z,38.90
2017-05-22T06:23:05.320Z,37.80
2017-05-22T06:25:33.913Z,35.50
2017-05-22T06:28:02.416Z,32.40
2017-05-22T06:30:30.912Z,32.80
2017-05-22T06:32:59.452Z,32.00
2017-05-22T06:35:27.956Z,31.60
2017-05-22T06:37:56.460Z,29.30
2017-05-22T06:40:25.028Z,27.60
2017-05-22T06:42:53.529Z,26.80
2017-05-22T06:45:22.032Z,26.90
2017-05-22T06:47:50.754Z,26.30
2017-05-22T06:50:19.257Z,24.70
2017-05-22T06:52:47.765Z,23.50
2017-05-22T06:55:16.307Z,23.60
2017-05-22T06:57:44.811Z,25.00
2017-05-22T07:00:13.313Z,26.70
2017-05-22T07:02:41.855Z,28.30
2017-05-22T07:05:10.356Z,29.50
2017-05-22T07:07:38.857Z,29.20
2017-05-22T07:10:07.401Z,29.50
2017-05-22T07:12:35.903Z,29.40
2017-05-22T07:15:04.408Z,29.30
2017-05-22T07:17:32.953Z,29.20
2017-05-22T07:20:01.465Z,28.70
2017-05-22T07:22:29.961Z,28.60
2017-05-22T07:24:58.505Z,28.60
2017-05-22T07:27:27.006Z,27.10
2017-05-22T07:29:55.499Z,26.30
2017-05-22T07:32:24.060Z,25.00
2017-05-22T07:34:52.559Z,23.80
2017-05-22T07:37:21.060Z,22.90
2017-05-22T07:39:49.627Z,22.00
2017-05-22T07:42:18.139Z,22.70
2017-05-22T07:44:46.641Z,22.90
2017-05-22T07:47:15.175Z,23.10
2017-05-22T07:49:43.677Z,22.20
2017-05-22T07:52:12.176Z,21.40
2017-05-22T07:54:40.722Z,21.10
2017-05-22T07:57:09.223Z,21.10
2017-05-22T07:59:37.716Z,21.40
2017-05-22T08:02:06.255Z,20.00
2017-05-22T08:04:34.757Z,19.10
2017-05-22T08:07:03.260Z,19.20
2017-05-22T08:09:31.797Z,18.80
2017-05-22T08:12:00.305Z,21.00
2017-05-22T08:14:28.811Z,20.10
2017-05-22T08:16:57.364Z,18.80
2017-05-22T08:19:25.864Z,17.90
2017-05-22T08:21:54.372Z,17.90
2017-05-22T08:24:22.910Z,18.20
2017-05-22T08:26:51.421Z,21.30
2017-05-22T08:29:19.924Z,22.40
2017-05-22T08:31:48.467Z,21.70
2017-05-22T08:34:17.004Z,21.40
2017-05-22T08:36:45.507Z,18.70
2017-05-22T08:39:14.057Z,17.70
2017-05-22T08:41:42.556Z,19.60
2017-05-22T08:44:11.057Z,18.00
2017-05-22T08:46:39.596Z,16.60
2017-05-22T08:49:08.100Z,17.70
2017-05-22T08:51:36.604Z,17.50
2017-05-22T08:54:05.409Z,16.40
2017-05-22T08:56:33.913Z,16.80
2017-05-22T08:59:02.420Z,16.00
2017-05-22T09:01:30.960Z,15.30
2017-05-22T09:03:59.463Z,16.20
2017-05-22T09:06:27.960Z,18.00
2017-05-22T09:08:56.504Z,17.50
2017-05-22T09:11:24.998Z,17.10
2017-05-22T09:13:53.507Z,16.60
2017-05-22T09:16:22.048Z,17.00
2017-05-22T09:18:50.542Z,17.90
2017-05-22T09:21:19.049Z,17.50
2017-05-22T09:23:47.613Z,16.60
2017-05-22T09:26:16.117Z,16.70
2017-05-22T09:28:44.621Z,17.80
2017-05-22T09:31:13.400Z,19.00
2017-05-22T09:33:41.904Z,20.10
2017-05-22T09:36:10.403Z,20.70
2017-05-22T09:38:38.954Z,21.30
2017-05-22T09:41:07.459Z,22.80
2017-05-22T09:43:35.972Z,22.50
2017-05-22T09:46:04.518Z,22.40
2017-05-22T09:48:33.030Z,22.10
2017-05-22T09:51:01.535Z,22.50
2017-05-22T09:53:30.072Z,23.20
2017-05-22T09:55:58.573Z,22.80
2017-05-22T09:58:27.076Z,23.10
2017-05-22T10:00:55.620Z,23.10
2017-05-22T10:03:24.120Z,23.70
2017-05-22T10:05:52.619Z,24.80
2017-05-22T10:08:20.393Z,24.70
2017-05-22T10:10:48.900Z,24.90
2017-05-22T10:13:17.407Z,25.80
2017-05-22T10:15:45.953Z,25.50
2017-05-22T10:18:14.452Z,25.50
2017-05-22T10:20:42.957Z,24.90
2017-05-22T10:23:11.497Z,24.40
2017-05-22T10:25:40.004Z,23.70
2017-05-22T10:28:08.516Z,23.70
2017-05-22T10:30:37.057Z,22.80
2017-05-22T10:33:05.555Z,22.90
2017-05-22T10:35:34.091Z,22.90
2017-05-22T10:38:02.628Z,23.80
2017-05-22T10:40:31.133Z,23.70
2017-05-22T10:42:59.635Z,24.70
2017-05-22T10:45:28.175Z,25.10
2017-05-22T10:47:56.677Z,24.20
2017-05-22T10:50:25.179Z,24.60
2017-05-22T10:52:53.725Z,24.70
2017-05-22T10:55:22.279Z,24.80
2017-05-22T10:57:50.781Z,24.80
2017-05-22T11:00:19.333Z,24.90
2017-05-22T11:02:47.840Z,24.10
2017-05-22T11:05:16.563Z,24.50
2017-05-22T11:07:45.112Z,24.60
2017-05-22T11:10:13.608Z,24.70
2017-05-22T11:12:42.110Z,24.60
2017-05-22T11:15:10.661Z,25.10
2017-05-22T11:17:39.165Z,25.00
2017-05-22T11:20:07.674Z,25.40
2017-05-22T11:22:36.208Z,25.60
2017-05-22T11:25:04.709Z,25.90
2017-05-22T11:27:33.211Z,26.40
2017-05-22T11:30:01.784Z,25.50
2017-05-22T11:32:30.287Z,26.10
2017-05-22T11:34:58.797Z,26.30
2017-05-22T11:37:27.340Z,26.20
2017-05-22T11:39:55.851Z,26.60
2017-05-22T11:42:24.365Z,26.50
2017-05-22T11:44:52.904Z,26.50
2017-05-22T11:47:21.412Z,26.30
2017-05-22T11:49:49.939Z,26.30
2017-05-22T11:52:18.484Z,26.10
2017-05-22T11:54:46.984Z,26.90
2017-05-22T11:57:15.483Z,27.60
2017-05-22T11:59:44.024Z,27.40
2017-05-22T12:02:12.520Z,27.20
2017-05-22T12:04:41.024Z,27.60
2017-05-22T12:07:09.574Z,27.70
2017-05-22T12:09:38.075Z,28.30
2017-05-22T12:12:06.570Z,28.20
2017-05-22T12:14:35.110Z,27.50
2017-05-22T12:17:03.635Z,27.40
2017-05-22T12:19:32.136Z,27.10
2017-05-22T12:22:00.680Z,26.30
2017-05-22T12:24:29.197Z,27.60
2017-05-22T12:26:57.703Z,27.60
2017-05-22T12:29:26.248Z,27.90
2017-05-22T12:31:54.757Z,28.50
2017-05-22T12:34:23.489Z,28.70
2017-05-22T12:36:52.026Z,28.70
2017-05-22T12:39:20.524Z,28.50
2017-05-22T12:41:49.027Z,27.90
2017-05-22T12:44:17.582Z,28.40
2017-05-22T12:46:46.087Z,28.80
2017-05-22T12:49:14.598Z,28.70
2017-05-22T12:51:43.153Z,28.80
2017-05-22T12:54:11.656Z,27.50
2017-05-22T12:56:40.155Z,27.20
2017-05-22T12:59:08.729Z,27.40
2017-05-22T13:01:37.231Z,27.40
2017-05-22T13:04:05.731Z,27.90
2017-05-22T13:06:34.275Z,28.00
2017-05-22T13:09:02.779Z,27.60
2017-05-22T13:11:31.280Z,27.80
2017-05-22T13:13:59.839Z,27.80
2017-05-22T13:16:28.335Z,27.90
2017-05-22T13:18:56.840Z,28.10
2017-05-22T13:21:25.380Z,27.90
2017-05-22T13:23:53.876Z,27.70
2017-05-22T13:26:22.385Z,27.50
2017-05-22T13:28:50.926Z,28.40
2017-05-22T13:31:19.429Z,28.30
2017-05-22T13:33:47.950Z,27.50
2017-05-22T13:36:16.491Z,27.50
2017-05-22T13:38:44.989Z,27.40
2017-05-22T13:41:13.492Z,27.40
2017-05-22T13:43:42.029Z,27.40
2017-05-22T13:46:10.524Z,27.30
2017-05-22T13:48:39.036Z,27.80
2017-05-22T13:51:07.576Z,27.20
2017-05-22T13:53:36.084Z,27.90
2017-05-22T13:56:04.583Z,27.80
2017-05-22T13:58:33.124Z,28.30
2017-05-22T14:01:01.628Z,28.30
2017-05-22T14:03:30.133Z,28.40
2017-05-22T14:05:58.676Z,28.00
2017-05-22T14:08:27.177Z,28.10
2017-05-22T14:10:55.683Z,27.90
2017-05-22T14:13:24.222Z,27.80
2017-05-22T14:15:52.728Z,27.60
2017-05-22T14:18:21.228Z,28.30
2017-05-22T14:20:49.773Z,28.90
2017-05-22T14:23:18.277Z,28.80
2017-05-22T14:25:46.771Z,28.80
2017-05-22T14:28:15.312Z,28.40
2017-05-22T14:30:43.812Z,28.30
2017-05-22T14:33:12.361Z,28.10
2017-05-22T14:35:40.903Z,27.70
2017-05-22T14:38:09.416Z,27.60
2017-05-22T14:40:37.927Z,27.60
2017-05-22T14:43:06.488Z,28.30
2017-05-22T14:45:35.002Z,28.20
2017-05-22T14:48:03.504Z,28.30
2017-05-22T14:50:32.054Z,28.00
2017-05-22T14:53:00.575Z,28.70
2017-05-22T14:55:29.073Z,28.70
2017-05-22T14:57:57.624Z,28.90
2017-05-22T15:00:26.120Z,28.60
2017-05-22T15:02:54.620Z,29.60
2017-05-22T15:05:23.166Z,29.30
2017-05-22T15:07:51.673Z,28.90
2017-05-22T15:10:20.181Z,28.80
2017-05-22T15:12:48.987Z,28.50
2017-05-22T15:15:17.479Z,28.80
2017-05-22T15:17:45.979Z,29.20
2017-05-22T15:20:14.523Z,28.90
2017-05-22T15:22:43.017Z,29.40
2017-05-22T15:25:11.521Z,29.70
2017-05-22T15:27:40.077Z,29.50
2017-05-22T15:30:08.579Z,29.30
2017-05-22T15:32:37.085Z,29.30
2017-05-22T15:35:05.632Z,29.10
2017-05-22T15:37:34.137Z,29.50
2017-05-22T15:40:02.639Z,29.20
2017-05-22T15:42:31.184Z,28.90
2017-05-22T15:44:59.688Z,29.00
2017-05-22T15:47:28.194Z,29.20
2017-05-22T15:49:56.748Z,29.80
2017-05-22T15:52:25.249Z,29.50
2017-05-22T15:54:53.749Z,29.70
2017-05-22T15:57:22.297Z,28.70
2017-05-22T15:59:50.796Z,29.50
2017-05-22T16:02:19.298Z,29.80
2017-05-22T16:04:47.851Z,29.60
2017-05-22T16:07:16.353Z,29.50
2017-05-22T16:09:44.850Z,29.50
2017-05-22T16:12:13.398Z,28.70
2017-05-22T16:14:41.905Z,29.10
2017-05-22T16:17:10.414Z,29.50
2017-05-22T16:19:38.956Z,30.00
2017-05-22T16:22:07.467Z,29.70
2017-05-22T16:24:35.968Z,30.90
2017-05-22T16:27:04.508Z,31.60
2017-05-22T16:29:33.020Z,32.20
2017-05-22T16:32:01.517Z,32.10
2017-05-22T16:34:30.060Z,32.80
2017-05-22T16:36:58.558Z,33.50
2017-05-22T16:39:27.065Z,34.00
2017-05-22T16:41:55.612Z,34.70
2017-05-22T16:44:24.113Z,34.90
2017-05-22T16:46:52.615Z,35.70
2017-05-22T16:49:21.225Z,35.90
2017-05-22T16:51:49.732Z,36.10
2017-05-22T16:54:18.234Z,36.00
2017-05-22T16:56:46.781Z,36.00
2017-05-22T16:59:15.280Z,36.00
2017-05-22T17:01:43.780Z,36.40
2017-05-22T17:04:12.333Z,36.70
2017-05-22T17:06:40.846Z,37.30
2017-05-22T17:09:09.356Z,37.70
2017-05-22T17:11:37.902Z,37.30
2017-05-22T17:14:06.402Z,37.40
2017-05-22T17:16:34.905Z,37.70
2017-05-22T17:19:03.444Z,37.70
2017-05-22T17:21:31.945Z,37.80
2017-05-22T17:24:00.444Z,37.60
2017-05-22T17:26:28.997Z,37.60
2017-05-22T17:28:58.392Z,38.70
2017-05-22T17:31:26.909Z,39.20
2017-05-22T17:33:55.463Z,39.70
2017-05-22T17:36:23.995Z,40.00
2017-05-22T17:38:52.549Z,40.30
2017-05-22T17:41:21.095Z,40.90
2017-05-22T17:43:58.580Z,40.30
2017-05-22T17:46:27.121Z,40.50
2017-05-22T17:48:55.614Z,40.90
2017-05-22T17:51:24.116Z,41.50
2017-05-22T17:53:52.665Z,41.30
2017-05-22T17:56:21.168Z,41.10
2017-05-22T17:58:49.685Z,41.00
2017-05-22T18:01:18.227Z,41.80
2017-05-22T18:03:46.728Z,41.90
2017-05-22T18:06:15.252Z,42.10
2017-05-22T18:08:43.793Z,42.40
2017-05-22T18:11:12.316Z,42.20
2017-05-22T18:13:40.816Z,42.30
2017-05-22T18:16:09.382Z,43.30
2017-05-22T18:18:37.888Z,43.70
2017-05-22T18:21:06.403Z,44.80
2017-05-22T18:23:34.949Z,45.60
2017-05-22T18:26:03.451Z,46.70
2017-05-22T18:28:31.958Z,47.90
2017-05-22T18:31:00.566Z,47.90
2017-05-22T18:33:29.767Z,48.40
2017-05-22T18:35:58.270Z,49.10
2017-05-22T18:38:26.812Z,49.80
2017-05-22T18:40:55.315Z,50.20
2017-05-22T18:43:23.912Z,50.80
2017-05-22T18:45:52.463Z,50.90
2017-05-22T18:48:21.005Z,51.30
2017-05-22T18:50:49.525Z,51.10
2017-05-22T18:53:18.068Z,50.80
2017-05-22T18:55:46.571Z,51.00
2017-05-22T18:58:15.541Z,51.90
2017-05-22T19:00:44.087Z,52.40
2017-05-22T19:03:12.583Z,52.30
2017-05-22T19:05:41.227Z,52.50
2017-05-22T19:08:09.908Z,52.40
2017-05-22T19:10:38.411Z,52.80
2017-05-22T19:13:06.907Z,53.20
2017-05-22T19:15:35.472Z,53.30
2017-05-22T19:18:03.980Z,53.50
2017-05-22T19:20:32.490Z,54.50
2017-05-22T19:23:01.037Z,54.80
2017-05-22T19:25:29.574Z,54.90
2017-05-22T19:27:58.099Z,55.20
2017-05-22T19:30:26.896Z,55.60
2017-05-22T19:32:55.397Z,54.80
2017-05-22T19:35:23.938Z,55.00
2017-05-22T19:37:52.562Z,54.70
2017-05-22T19:40:21.088Z,54.70
2017-05-22T19:42:50.519Z,54.90
2017-05-22T19:45:19.063Z,55.00
2017-05-22T19:47:51.298Z,55.60
2017-05-22T19:50:20.980Z,55.70
2017-05-22T19:52:49.612Z,55.90
2017-05-22T19:55:18.407Z,56.30
2017-05-22T19:57:47.548Z,56.60
2017-05-22T20:00:16.115Z,56.40
2017-05-22T20:02:48.445Z,56.00
2017-05-22T20:05:18.483Z,57.00
2017-05-22T20:07:48.079Z,59.80
2017-05-22T20:10:16.755Z,60.90
2017-05-22T20:12:47.392Z,61.90
2017-05-22T20:15:16.096Z,62.70
2017-05-22T20:17:44.600Z,63.20
2017-05-22T20:20:13.167Z,64.00
2017-05-22T20:22:41.684Z,65.50
2017-05-22T20:25:10.187Z,66.10
2017-05-22T20:27:38.739Z,66.60
2017-05-22T20:30:07.240Z,66.60
2017-05-22T20:32:35.743Z,66.00
2017-05-22T20:35:04.292Z,66.50
2017-05-22T20:37:32.854Z,66.90
2017-05-22T20:40:01.359Z,68.10
2017-05-22T20:42:29.900Z,68.00
2017-05-22T20:44:58.417Z,70.10
2017-05-22T20:47:26.920Z,70.50
2017-05-22T20:49:55.701Z,73.10
2017-05-22T20:52:24.213Z,72.90
2017-05-22T20:54:52.715Z,73.50
2017-05-22T20:57:21.264Z,75.80
2017-05-22T20:59:49.900Z,76.30
2017-05-22T21:02:18.413Z,78.70
2017-05-22T21:04:46.954Z,79.20
2017-05-22T21:07:15.461Z,80.30
2017-05-22T21:09:43.983Z,80.70
2017-05-22T21:12:12.523Z,79.50
2017-05-22T21:14:41.024Z,80.10
2017-05-22T21:17:09.536Z,83.30
2017-05-22T21:19:38.077Z,85.90
2017-05-22T21:22:06.577Z,86.30
2017-05-22T21:24:35.085Z,87.00
2017-05-22T21:27:03.630Z,88.50
2017-05-22T21:29:32.131Z,88.20
2017-05-22T21:32:00.635Z,89.50
2017-05-22T21:34:29.241Z,88.70
2017-05-22T21:36:57.741Z,88.40
2017-05-22T21:39:26.243Z,89.60
2017-05-22T21:41:54.788Z,89.10
2017-05-22T21:44:23.299Z,88.90
2017-05-22T21:46:51.804Z,90.00
2017-05-22T21:49:20.354Z,90.30
2017-05-22T21:51:48.850Z,91.00
2017-05-22T21:54:17.355Z,91.50
2017-05-22T21:56:45.892Z,91.80
2017-05-22T21:59:14.388Z,91.90
2017-05-22T22:01:42.887Z,92.70
2017-05-22T22:04:11.439Z,92.80
2017-05-22T22:06:39.947Z,93.20
2017-05-22T22:09:08.447Z,93.00
2017-05-22T22:11:37.001Z,92.70
2017-05-22T22:14:05.517Z,92.90
2017-05-22T22:16:34.023Z,93.40
2017-05-22T22:19:02.563Z,93.40
2017-05-22T22:21:31.064Z,93.10
2017-05-22T22:23:59.571Z,93.00
2017-05-22T22:26:28.114Z,93.10
2017-05-22T22:28:56.621Z,93.40
2017-05-22T22:31:25.130Z,93.70
2017-05-22T22:33:53.684Z,94.20
2017-05-22T22:36:22.193Z,94.40
2017-05-22T22:38:50.719Z,94.30
2017-05-22T22:41:19.295Z,93.90
2017-05-22T22:43:47.796Z,95.10
2017-05-22T22:46:16.297Z,95.40
2017-05-22T22:48:44.832Z,96.00
2017-05-22T22:51:13.334Z,96.00
2017-05-22T22:53:41.859Z,95.80
2017-05-22T22:56:10.410Z,96.60
2017-05-22T22:58:38.920Z,97.10
2017-05-22T23:01:07.483Z,97.60
2017-05-22T23:03:36.041Z,97.70
2017-05-22T23:06:04.547Z,97.90
2017-05-22T23:08:33.048Z,98.20
2017-05-22T23:11:01.586Z,98.70
2017-05-22T23:13:30.133Z,99.00
2017-05-22T23:15:58.639Z,99.90
2017-05-22T23:18:27.188Z,99.90
2017-05-22T23:20:55.689Z,99.90
2017-05-22T23:23:24.195Z,99.90
2017-05-22T23:25:52.741Z,99.90
2017-05-22T23:28:21.248Z,99.90
2017-05-22T23:30:49.759Z,99.90
2017-05-22T23:33:18.315Z,99.90
2017-05-22T23:35:46.823Z,99.90
2017-05-22T23:38:15.329Z,99.90
2017-05-22T23:40:43.908Z,99.90
2017-05-22T23:43:12.420Z,99.90
2017-05-22T23:45:40.927Z,99.90
2017-05-22T23:48:09.478Z,99.90
2017-05-22T23:50:37.988Z,99.90
2017-05-22T23:53:06.502Z,99.90
2017-05-22T23:55:35.050Z,99.90
2017-05-22T23:58:03.552Z,99.90
